No particular awareness of the weather is required.    There are no Weather-warnings


Meteo18 Weather Cam more information Meteo18 Weather Cam


Thunder radar more information blitzortung!


Rain radar more information rain snow radar


Visit our other weather sites:

Template documentation
and downloads

And another site



Weather Underground History page Text

Daily Summary for September 17, 2017 Units:  English    Metric   Both
« Previous Day
Next Day »
Daily Weekly Monthly Yearly Custom
  High: Low: Average:
Temperature: 54.9 °F 48.6 °F 50.7 °F
Dew Point: 49.5 °F 46.2 °F 48.2 °F
Humidity: 96 % 77 % 91 %
Wind Speed: 7 mph 0 mph 1.9 mph
Wind Gust: 11 mph - -
Wind:- - SW
Pressure: 30 in 29.9 in -
Precipitation: 0.17 in    
Historical Graphs
 
 
Tabular Data for September 17, 2017
Time Temperature Dew Point Pressure Wind Wind Speed Wind Gust Humidity Rainfall Rate (Hourly)
00:02 48.7 °F 47.3 °F 29.9 in Calm   2 mph 95 % 0 in
00:07 48.7 °F 47.3 °F 29.9 in Calm   2 mph 95 % 0 in
00:12 48.7 °F 47.3 °F 29.9 in SE 1 mph 2 mph 95 % 0 in
00:17 48.9 °F 47.5 °F 29.9 in South 2 mph 2 mph 95 % 0 in
00:22 49.1 °F 47.7 °F 29.9 in SW 4 mph 4 mph 95 % 0 in
00:32 49.5 °F 48 °F 29.9 in SSW 3 mph 4 mph 95 % 0 in
00:37 49.3 °F 47.8 °F 29.9 in SSW 2 mph 7 mph 95 % 0.01 in
00:42 49.3 °F 47.7 °F 29.9 in South 2 mph 7 mph 94 % 0.02 in
00:47 49.3 °F 47.7 °F 29.9 in SSW 3 mph 6 mph 94 % 0.02 in
00:52 49.3 °F 47.7 °F 29.9 in SSW 2 mph 6 mph 94 % 0.02 in
00:57 49.3 °F 47.8 °F 29.9 in SW 1 mph 5 mph 95 % 0.02 in
01:02 49.3 °F 47.8 °F 29.9 in SSE 1 mph 5 mph 95 % 0.04 in
01:07 49.3 °F 47.8 °F 29.9 in Calm   4 mph 95 % 0.05 in
01:12 49.3 °F 47.8 °F 29.9 in SW 3 mph 3 mph 95 % 0.05 in
01:17 49.3 °F 47.8 °F 29.9 in SSW 1 mph 4 mph 95 % 0.05 in
01:22 49.3 °F 47.8 °F 29.9 in SSW 1 mph 4 mph 95 % 0.05 in
01:27 49.3 °F 47.8 °F 29.9 in SW 1 mph 4 mph 95 % 0.05 in
01:32 49.3 °F 47.8 °F 29.9 in SW 1 mph 3 mph 95 % 0.06 in
01:37 49.1 °F 47.7 °F 29.9 in SW 2 mph 3 mph 95 % 0.06 in
01:42 49.1 °F 47.7 °F 29.9 in SW 3 mph 3 mph 95 % 0.06 in
01:47 49.1 °F 47.7 °F 29.9 in SW 3 mph 6 mph 95 % 0.06 in
01:52 49.1 °F 47.7 °F 29.9 in WSW 3 mph 7 mph 95 % 0.05 in
01:57 49.1 °F 47.7 °F 29.9 in SW 3 mph 7 mph 95 % 0.04 in
02:02 49.1 °F 47.7 °F 29.9 in SSW 2 mph 7 mph 95 % 0.03 in
02:07 49.3 °F 47.7 °F 29.9 in WNW 2 mph 6 mph 94 % 0.02 in
02:12 49.3 °F 47.7 °F 29.9 in West 3 mph 6 mph 94 % 0.02 in
02:17 49.3 °F 47.7 °F 29.9 in WSW 2 mph 7 mph 94 % 0.02 in
02:22 49.3 °F 47.3 °F 29.9 in SW 2 mph 7 mph 93 % 0.02 in
02:32 49.3 °F 47.3 °F 29.9 in Calm   5 mph 93 % 0 in
02:37 49.3 °F 47.3 °F 29.9 in SW 1 mph 4 mph 93 % 0 in
02:42 49.3 °F 47.3 °F 29.9 in SW 1 mph 3 mph 93 % 0 in
02:47 49.3 °F 47.3 °F 29.9 in Calm   3 mph 93 % 0 in
02:52 49.1 °F 47.1 °F 29.9 in Calm   3 mph 93 % 0 in
02:57 49.1 °F 47.1 °F 29.9 in Calm   2 mph 93 % 0 in
03:02 48.9 °F 47.3 °F 29.9 in Calm   1 mph 94 % 0 in
03:07 48.9 °F 47.3 °F 29.9 in SW 1 mph 1 mph 94 % 0 in
03:12 48.9 °F 47.3 °F 29.9 in SSW 1 mph 2 mph 94 % 0 in
03:17 48.9 °F 47.3 °F 29.9 in SSW 1 mph 2 mph 94 % 0 in
03:22 48.7 °F 47.1 °F 29.9 in Calm   2 mph 94 % 0 in
03:27 48.7 °F 47.1 °F 29.9 in Calm   2 mph 94 % 0 in
03:32 48.9 °F 47.5 °F 29.9 in SSW 1 mph 2 mph 95 % 0 in
03:37 48.7 °F 47.3 °F 29.9 in Calm   2 mph 95 % 0 in
03:42 48.7 °F 47.3 °F 29.9 in Calm   2 mph 95 % 0 in
03:47 48.7 °F 47.3 °F 29.9 in Calm   2 mph 95 % 0 in
03:52 48.7 °F 47.3 °F 29.9 in Calm   1 mph 95 % 0 in
04:02 48.6 °F 47.1 °F 29.9 in Calm   1 mph 95 % 0 in
04:07 48.6 °F 47.1 °F 29.9 in Calm   2 mph 95 % 0 in
04:12 48.6 °F 47.1 °F 29.9 in Calm   2 mph 95 % 0 in
04:17 48.6 °F 47.1 °F 29.9 in Calm   2 mph 95 % 0 in
04:22 48.6 °F 47.1 °F 29.9 in Calm   2 mph 95 % 0 in
04:27 48.7 °F 47.3 °F 29.9 in Calm   2 mph 95 % 0 in
04:32 48.9 °F 47.8 °F 29.9 in Calm   2 mph 96 % 0 in
04:37 48.9 °F 47.8 °F 29.9 in SW 1 mph 2 mph 96 % 0 in
04:42 49.1 °F 48 °F 29.9 in SW 4 mph 4 mph 96 % 0 in
04:47 49.3 °F 48.2 °F 29.9 in Calm   4 mph 96 % 0 in
04:52 49.3 °F 48.2 °F 29.9 in SW 1 mph 4 mph 96 % 0 in
04:57 49.3 °F 48.2 °F 29.9 in Calm   4 mph 96 % 0 in
05:02 49.3 °F 48.2 °F 29.9 in Calm   4 mph 96 % 0 in
05:12 49.3 °F 48.2 °F 29.9 in Calm   3 mph 96 % 0 in
05:22 49.3 °F 48.2 °F 29.9 in Calm     96 % 0 in
05:27 49.3 °F 48.2 °F 29.9 in Calm     96 % 0 in
05:32 49.3 °F 48.2 °F 29.9 in SW 3 mph   96 % 0 in
05:42 49.3 °F 48.2 °F 29.9 in Calm   2 mph 96 % 0 in
05:52 49.5 °F 48.4 °F 29.9 in SSE 1 mph 3 mph 96 % 0 in
05:57 49.5 °F 48.4 °F 29.9 in Calm   2 mph 96 % 0 in
06:02 49.5 °F 48.4 °F 29.9 in SSW 3 mph 3 mph 96 % 0 in
06:12 49.5 °F 48.4 °F 29.9 in SSW 4 mph 4 mph 96 % 0 in
06:17 49.5 °F 48.4 °F 29.9 in SW 2 mph 5 mph 96 % 0 in
06:22 49.5 °F 48.4 °F 29.9 in SW 3 mph 5 mph 96 % 0 in
06:32 49.5 °F 48.4 °F 29.9 in SW 4 mph 5 mph 96 % 0 in
06:37 49.6 °F 48.6 °F 29.9 in SW 2 mph 7 mph 96 % 0 in
06:42 49.6 °F 48.6 °F 29.9 in SSW 2 mph 7 mph 96 % 0 in
06:47 49.6 °F 48.2 °F 29.9 in SSW 5 mph 7 mph 95 % 0 in
06:52 49.6 °F 48.2 °F 29.9 in SW 3 mph 7 mph 95 % 0 in
06:57 49.6 °F 48.2 °F 29.9 in SW 1 mph 6 mph 95 % 0 in
07:02 49.6 °F 48.2 °F 29.9 in SSW 1 mph 6 mph 95 % 0 in
07:12 49.6 °F 48.2 °F 29.9 in SSW 2 mph 5 mph 95 % 0 in
07:17 49.6 °F 48.2 °F 29.9 in Calm   5 mph 95 % 0 in
07:22 49.6 °F 48.2 °F 29.9 in SW 3 mph 5 mph 95 % 0 in
07:32 49.6 °F 48.2 °F 29.9 in SW 3 mph 5 mph 95 % 0 in
07:37 49.6 °F 48.2 °F 29.9 in SW 3 mph 5 mph 95 % 0 in
07:42 49.6 °F 48.2 °F 29.9 in SW 3 mph 5 mph 95 % 0 in
07:52 49.8 °F 48.4 °F 29.9 in SW 4 mph 5 mph 95 % 0 in
08:02 49.8 °F 48.4 °F 29.9 in SSW 2 mph 5 mph 95 % 0 in
08:12 49.8 °F 48.4 °F 29.9 in SSW 2 mph 5 mph 95 % 0 in
08:17 49.8 °F 48.4 °F 29.9 in SE 1 mph 6 mph 95 % 0 in
08:22 49.8 °F 48.4 °F 29.9 in SSW 1 mph 6 mph 95 % 0 in
08:32 49.8 °F 48.4 °F 29.9 in Calm   5 mph 95 % 0 in
08:37 49.8 °F 48.4 °F 29.9 in Calm   3 mph 95 % 0 in
08:42 49.8 °F 48.4 °F 29.9 in Calm   3 mph 95 % 0 in
08:47 49.8 °F 48.4 °F 29.9 in SSW 3 mph 4 mph 95 % 0 in
08:52 49.8 °F 48.4 °F 29.9 in Calm   4 mph 95 % 0 in
08:57 49.8 °F 48.4 °F 29.9 in SW 2 mph 4 mph 95 % 0 in
09:02 49.8 °F 48.4 °F 29.9 in South 1 mph 4 mph 95 % 0 in
09:12 49.8 °F 48.4 °F 29.9 in SSW 1 mph 4 mph 95 % 0 in
09:17 49.8 °F 48.4 °F 29.9 in SE 2 mph 3 mph 95 % 0 in
09:22 50 °F 48.6 °F 29.9 in SSW 1 mph 3 mph 95 % 0 in
09:32 50.2 °F 48.7 °F 29.9 in SSW 2 mph 3 mph 95 % 0 in
09:37 50.2 °F 48.7 °F 29.9 in South 2 mph 5 mph 95 % 0 in
09:42 50.2 °F 48.7 °F 29.9 in SW 5 mph 5 mph 95 % 0 in
09:47 50.2 °F 48.6 °F 30 in SSW 3 mph 7 mph 94 % 0 in
09:52 50.2 °F 48.6 °F 30 in SW 2 mph 7 mph 94 % 0 in
09:57 50 °F 48.4 °F 30 in SW 5 mph 9 mph 94 % 0.01 in
10:02 50 °F 48.4 °F 30 in SSW 2 mph 9 mph 94 % 0.01 in
10:12 50.2 °F 48.6 °F 30 in WSW 4 mph 8 mph 94 % 0.01 in
10:17 50.4 °F 48.7 °F 30 in SW 2 mph 10 mph 94 % 0.01 in
10:22 50.4 °F 48.7 °F 30 in SW 3 mph 10 mph 94 % 0.01 in
10:32 50.5 °F 48.6 °F 30 in WSW 2 mph 6 mph 93 % 0.01 in
10:42 50.5 °F 48.4 °F 30 in WSW 4 mph 8 mph 92 % 0.01 in
10:47 50.5 °F 48 °F 30 in WSW 4 mph 8 mph 91 % 0.01 in
10:52 50.7 °F 48.6 °F 30 in West 1 mph 8 mph 92 % 0.01 in
10:57 50.5 °F 48 °F 30 in WSW 3 mph 8 mph 91 % 0 in
11:02 50.7 °F 48.6 °F 30 in SW 4 mph 7 mph 92 % 0 in
11:12 50.4 °F 47.3 °F 30 in WSW 5 mph 6 mph 89 % 0 in
11:22 50.4 °F 47.3 °F 30 in SSW 2 mph 8 mph 89 % 0.01 in
11:32 50.5 °F 47.5 °F 30 in SW 3 mph 8 mph 89 % 0.01 in
11:37 50.5 °F 47.7 °F 30 in Calm   5 mph 90 % 0.01 in
11:42 50.5 °F 47.7 °F 30 in SW 3 mph 5 mph 90 % 0.01 in
11:52 50.7 °F 48.2 °F 30 in WSW 5 mph 5 mph 91 % 0.02 in
11:57 50.7 °F 48.2 °F 30 in WSW 2 mph 5 mph 91 % 0.02 in
12:02 51.1 °F 48.6 °F 30 in WSW 4 mph 5 mph 91 % 0.02 in
12:12 50.9 °F 48.4 °F 30 in SW 6 mph 6 mph 91 % 0.02 in
12:17 51.1 °F 48.9 °F 30 in SW 1 mph 5 mph 92 % 0.02 in
12:22 51.3 °F 49.1 °F 30 in WSW 2 mph 5 mph 92 % 0.02 in
12:32 51.4 °F 49.3 °F 30 in SW 1 mph 7 mph 92 % 0.02 in
12:37 51.4 °F 48.9 °F 29.9 in SW 2 mph 5 mph 91 % 0.02 in
12:42 51.4 °F 49.3 °F 29.9 in SSW 2 mph 5 mph 92 % 0.02 in
12:52 51.6 °F 49.5 °F 29.9 in SW 4 mph 5 mph 92 % 0.02 in
12:57 51.6 °F 49.5 °F 29.9 in SSW 2 mph 7 mph 92 % 0.03 in
13:02 51.6 °F 49.5 °F 29.9 in WSW 7 mph 7 mph 92 % 0.03 in
13:12 51.3 °F 47.8 °F 30 in SSW 6 mph 11 mph 88 % 0.02 in
13:17 51.4 °F 48.4 °F 30 in South 6 mph 11 mph 89 % 0.02 in
13:32 51.6 °F 48.6 °F 30 in SW 3 mph 11 mph 89 % 0.02 in
13:42 51.4 °F 48 °F 29.9 in SSW 5 mph 10 mph 88 % 0.02 in
13:47 51.4 °F 47.5 °F 29.9 in WSW 4 mph 10 mph 86 % 0.02 in
13:52 51.4 °F 47.7 °F 29.9 in West 3 mph 10 mph 87 % 0.02 in
13:57 51.6 °F 47.5 °F 29.9 in SW 4 mph 8 mph 86 % 0.01 in
14:02 51.4 °F 46.8 °F 29.9 in SSW 5 mph 10 mph 84 % 0.01 in
14:07 51.4 °F 47.7 °F 29.9 in SSW 2 mph 10 mph 87 % 0.01 in
14:12 51.6 °F 47.5 °F 29.9 in SSW 1 mph 10 mph 86 % 0.01 in
14:17 51.6 °F 47.5 °F 29.9 in South 2 mph 9 mph 86 % 0.01 in
14:22 51.8 °F 48.4 °F 29.9 in SSW 4 mph 7 mph 88 % 0.01 in
14:27 51.6 °F 47.3 °F 29.9 in SSW 3 mph 9 mph 85 % 0.02 in
14:32 51.6 °F 47.8 °F 29.9 in SSW 3 mph 9 mph 87 % 0.01 in
14:37 51.6 °F 47.8 °F 29.9 in SSW 4 mph 9 mph 87 % 0.01 in
14:42 51.6 °F 47.8 °F 29.9 in SW 2 mph 9 mph 87 % 0.01 in
14:47 51.4 °F 46.2 °F 29.9 in SW 7 mph 9 mph 82 % 0.02 in
14:52 51.4 °F 46.2 °F 29.9 in WSW 3 mph 8 mph 82 % 0.02 in
14:57 52.2 °F 47.5 °F 29.9 in Calm   8 mph 84 % 0.02 in
15:02 52.5 °F 47.1 °F 29.9 in SSW 3 mph 8 mph 82 % 0.02 in
15:07 52.5 °F 47.5 °F 29.9 in SW 4 mph 8 mph 83 % 0.02 in
15:12 52.5 °F 47.1 °F 29.9 in SW 4 mph 8 mph 82 % 0.02 in
15:17 52.9 °F 48.6 °F 29.9 in SSW 2 mph 8 mph 85 % 0.02 in
15:22 52.9 °F 47.8 °F 29.9 in West 3 mph 9 mph 83 % 0.02 in
15:27 52.7 °F 48 °F 29.9 in SW 4 mph 9 mph 84 % 0.01 in
15:32 52.5 °F 47.5 °F 29.9 in WSW 2 mph 7 mph 83 % 0.01 in
15:37 52.5 °F 47.1 °F 29.9 in WSW 3 mph 6 mph 82 % 0.01 in
15:42 52.5 °F 46.6 °F 29.9 in WSW 2 mph 6 mph 80 % 0.01 in
15:47 52.5 °F 46.9 °F 29.9 in SSW 1 mph 6 mph 81 % 0 in
15:52 52.7 °F 47.3 °F 29.9 in WSW 1 mph 6 mph 82 % 0 in
15:57 52.9 °F 47.8 °F 29.9 in WSW 1 mph 5 mph 83 % 0 in
16:02 52.9 °F 48.2 °F 29.9 in Calm   5 mph 84 % 0 in
16:07 52.9 °F 47.8 °F 29.9 in SW 2 mph 6 mph 83 % 0 in
16:12 52.9 °F 47.8 °F 29.9 in West 2 mph 6 mph 83 % 0 in
16:17 53.4 °F 48.7 °F 29.9 in SW 2 mph 6 mph 84 % 0 in
16:22 54 °F 49.3 °F 29.9 in SSW 4 mph 5 mph 84 % 0 in
16:32 54 °F 48 °F 29.9 in West 3 mph 7 mph 80 % 0 in
16:37 54.1 °F 48.4 °F 29.9 in West 6 mph 7 mph 81 % 0 in
16:42 54 °F 47.7 °F 29.9 in SW 1 mph 9 mph 79 % 0 in
16:47 54.1 °F 48 °F 29.9 in SSW 3 mph 9 mph 80 % 0 in
16:52 53.8 °F 46.8 °F 29.9 in SW 2 mph 9 mph 77 % 0 in
16:57 54 °F 47.7 °F 29.9 in WNW 1 mph 7 mph 79 % 0 in
17:02 54 °F 47.7 °F 29.9 in WSW 3 mph 7 mph 79 % 0 in
17:07 54.1 °F 47.8 °F 29.9 in WNW 3 mph 6 mph 79 % 0 in
17:17 54.1 °F 47.8 °F 29.9 in West 2 mph 8 mph 79 % 0 in
17:22 54.5 °F 47.8 °F 29.9 in SW 5 mph 8 mph 78 % 0 in
17:32 54.1 °F 47.5 °F 29.9 in SW 4 mph 8 mph 78 % 0 in
17:37 54.3 °F 48 °F 29.9 in WSW 1 mph 8 mph 79 % 0 in
17:42 54.7 °F 48.4 °F 29.9 in WSW 3 mph 8 mph 79 % 0 in
17:47 54.9 °F 48.2 °F 29.9 in West 2 mph 8 mph 78 % 0 in
17:52 54.7 °F 48.6 °F 29.9 in SW 3 mph 8 mph 80 % 0 in
17:57 54.7 °F 48.6 °F 29.9 in SW 2 mph 6 mph 80 % 0 in
18:02 54.7 °F 49.3 °F 29.9 in WSW 1 mph 5 mph 82 % 0 in
18:07 54.7 °F 48.9 °F 29.9 in SW 2 mph 6 mph 81 % 0 in
18:12 54.3 °F 48.6 °F 29.9 in SW 2 mph 6 mph 81 % 0 in
18:17 54.1 °F 48 °F 30 in West 3 mph 6 mph 80 % 0 in
18:22 54 °F 48.2 °F 30 in SW 3 mph 6 mph 81 % 0 in
18:32 53.8 °F 48.4 °F 30 in WSW 2 mph 6 mph 82 % 0 in
18:42 53.6 °F 48.6 °F 30 in West 2 mph 4 mph 83 % 0 in
18:47 53.6 °F 48.9 °F 30 in West 2 mph 5 mph 84 % 0 in
18:52 53.6 °F 48.9 °F 30 in SW 4 mph 5 mph 84 % 0 in
18:57 53.4 °F 48.7 °F 30 in WSW 3 mph 7 mph 84 % 0 in
19:02 53.4 °F 48.7 °F 30 in WSW 5 mph 7 mph 84 % 0 in
19:07 53.2 °F 48.9 °F 30 in WSW 4 mph 8 mph 85 % 0 in
19:12 53.1 °F 48.9 °F 30 in West 3 mph 8 mph 86 % 0 in
19:17 52.7 °F 48.9 °F 30 in WSW 3 mph 8 mph 87 % 0 in
19:22 52.3 °F 48.9 °F 30 in WSW 3 mph 7 mph 88 % 0 in
19:32 52.2 °F 49.1 °F 30 in Calm   5 mph 89 % 0.01 in
19:37 52.2 °F 49.3 °F 30 in WSW 2 mph 5 mph 90 % 0.01 in
19:42 52 °F 49.1 °F 30 in WSW 2 mph 4 mph 90 % 0.01 in
19:52 51.6 °F 49.1 °F 30 in West 1 mph 4 mph 91 % 0.01 in
19:57 51.6 °F 49.1 °F 30 in Calm   4 mph 91 % 0.01 in
20:02 51.4 °F 48.9 °F 30 in WSW 1 mph 4 mph 91 % 0.01 in
20:07 51.4 °F 48.9 °F 30 in Calm   2 mph 91 % 0.01 in
20:12 51.3 °F 49.1 °F 30 in WSW 1 mph 2 mph 92 % 0.01 in
20:17 51.1 °F 48.9 °F 30 in Calm   1 mph 92 % 0.01 in
20:22 50.9 °F 48.7 °F 30 in Calm   2 mph 92 % 0.01 in
20:32 50.5 °F 48.4 °F 30 in Calm   2 mph 92 % 0 in
20:37 50.5 °F 48.6 °F 30 in Calm   3 mph 93 % 0 in
20:42 50.5 °F 48.6 °F 30 in WSW 2 mph 3 mph 93 % 0 in
20:47 50.5 °F 48.6 °F 30 in West 1 mph 3 mph 93 % 0 in
20:52 50.5 °F 48.6 °F 30 in Calm   3 mph 93 % 0 in
20:57 50.4 °F 48.4 °F 30 in WSW 1 mph 2 mph 93 % 0 in
21:02 50.5 °F 48.6 °F 30 in Calm   2 mph 93 % 0 in
21:07 50.5 °F 48.6 °F 30 in WSW 1 mph 2 mph 93 % 0 in
21:12 50.5 °F 48.6 °F 30 in West 1 mph 2 mph 93 % 0 in
21:17 50.5 °F 48.6 °F 30 in WSW 2 mph 3 mph 93 % 0 in
21:22 50.7 °F 48.7 °F 30 in SW 2 mph 4 mph 93 % 0 in
21:27 50.7 °F 48.7 °F 30 in SW 1 mph 4 mph 93 % 0 in
21:32 50.7 °F 48.7 °F 30 in WSW 1 mph 4 mph 93 % 0 in
21:37 50.7 °F 48.7 °F 30 in SW 3 mph 4 mph 93 % 0 in
21:42 50.7 °F 48.7 °F 30 in West 1 mph 3 mph 93 % 0 in
21:47 50.7 °F 49.1 °F 30 in SW 2 mph 4 mph 94 % 0 in
21:52 50.7 °F 49.1 °F 30 in SW 2 mph 4 mph 94 % 0 in
21:57 50.7 °F 49.1 °F 30 in West 2 mph 5 mph 94 % 0 in
22:02 50.7 °F 49.1 °F 30 in Calm   5 mph 94 % 0 in
22:12 50.7 °F 49.1 °F 30 in SW 1 mph 2 mph 94 % 0.01 in
22:17 50.7 °F 49.1 °F 30 in WSW 1 mph 3 mph 94 % 0.01 in
22:22 50.7 °F 49.1 °F 30 in WSW 1 mph 4 mph 94 % 0.01 in
22:32 50.5 °F 48.9 °F 30 in SW 2 mph 4 mph 94 % 0.01 in
22:47 50.4 °F 48.7 °F 30 in SW 3 mph 3 mph 94 % 0.01 in
22:52 50.4 °F 48.7 °F 30 in SW 2 mph 3 mph 94 % 0.01 in
22:57 50.4 °F 48.7 °F 30 in SW 2 mph 4 mph 94 % 0.01 in
23:02 50.4 °F 48.7 °F 30 in West 1 mph 4 mph 94 % 0 in
23:07 50.4 °F 48.7 °F 30 in SW 2 mph 4 mph 94 % 0 in
23:12 50.4 °F 48.7 °F 30 in SW 1 mph 4 mph 94 % 0 in
23:17 50.4 °F 48.9 °F 30 in SW 2 mph 4 mph 95 % 0 in
23:22 50.4 °F 48.9 °F 30 in SW 1 mph 4 mph 95 % 0 in
23:27 50.4 °F 48.9 °F 30 in Calm   4 mph 95 % 0 in
23:32 50.2 °F 48.7 °F 30 in Calm   4 mph 95 % 0 in
23:37 50.4 °F 48.9 °F 30 in WNW 1 mph 3 mph 95 % 0 in
23:42 50.2 °F 48.7 °F 30 in Calm   2 mph 95 % 0 in
23:47 50.2 °F 48.7 °F 30 in Calm   2 mph 95 % 0 in
23:52 50.2 °F 48.7 °F 30 in Calm   1 mph 95 % 0 in
23:57 50.2 °F 48.7 °F 30 in Calm     95 % 0 in
Meteo18
Compliments of Weather Underground - 4 mb

Script developed by  Jim McMurry - jmcmurry@mwt.net Adapted for the template by  Wim van der Kuil - Leuven-Template.eu

You find our weather info also at:

European Weather Network

Weather Underground

Equipment we use:

Weather-station
Davis Vue

Weather-program
Meteohub

Weather-server
Raspberry PI 2 B+

Provider
1 and 1

Davis Vue

Meteohub

Raspberry PI 2 B+

1 and 1